LEVC/VLC METAR and TAF weather

Enter ICAO airport designator
Station Type Date Time Source
LEVC METAR 2020/09/19 18:30 UTC NOAA

LEVC 191830Z 25010KT CAVOK 27/12 Q1014 NOSIG


Station Type Date Time Source
LEVC Decoded METAR 2020/09/19 18:30 UTC NOAA

Valencia / Aeropuerto, Spain (LEVC) 39-30N 000-28W 62M
Sep 19, 2020 - 02:30 PM EDT / 2020.09.19 1830 UTC
Wind: from the WSW (250 degrees) at 12 MPH (10 KT):0
Visibility: greater than 7 mile(s):0
Temperature: 80 F (27 C)
Dew Point: 53 F (12 C)
Relative Humidity: 39%
Pressure (altimeter): 29.94 in. Hg (1014 hPa)
ob: LEVC 191830Z 25010KT CAVOK 27/12 Q1014 NOSIG
cycle: 18

Station Type Date Time Source
LEVC TAF 2020/09/19 18:27 UTC NOAA

TAF LEVC 191700Z 1918/2018 27010KT 9999 FEW030 TX32/2012Z TN19/2006Z
BECMG 1919/1921 30006KT
BECMG 2007/2009 30010KT

Example: see airport list